Time;durP1;ratioP1;P1;durP2;ratioP2;P2;SDS_P1;SDS_P2;PMS_P1;PMS_P2;Temp;Humidity;BMP_temperature;BMP_pressure;BME280_temperature;BME280_humidity;BME280_pressure;Samples;Min_cycle;Max_cycle;Signal;HPM_P1;HPM_P2
2023/10/06 00:01:44;;;;;;;10.50;5.72;;;15.30;99.90;;;;;;5038426;28;20707;-71
2023/10/06 00:04:15;;;;;;;10.60;5.53;;;15.20;99.90;;;;;;5040379;28;20029;-71
2023/10/06 00:06:42;;;;;;;13.52;6.68;;;15.20;99.90;;;;;;5040668;28;20083;-71
2023/10/06 00:09:30;;;;;;;16.65;6.95;;;15.20;99.90;;;;;;5039709;28;20060;-71
2023/10/06 00:11:56;;;;;;;12.63;6.65;;;15.20;99.90;;;;;;5034781;28;20528;-71
2023/10/06 00:17:11;;;;;;;11.90;6.78;;;15.20;99.90;;;;;;5039775;28;20032;-71
2023/10/06 00:19:39;;;;;;;13.75;5.82;;;15.10;99.90;;;;;;5045000;28;20082;-71
2023/10/06 00:24:50;;;;;;;10.35;4.95;;;15.10;99.90;;;;;;5040510;28;20049;-72
2023/10/06 00:27:23;;;;;;;15.95;6.28;;;15.20;99.90;;;;;;5040960;28;20025;-71
2023/10/06 00:29:54;;;;;;;10.55;6.18;;;15.20;99.90;;;;;;5041529;28;20534;-71
2023/10/06 00:32:26;;;;;;;12.30;6.90;;;15.20;99.90;;;;;;5041791;28;20032;-72
2023/10/06 00:34:55;;;;;;;14.73;7.18;;;15.10;99.90;;;;;;5039066;28;20032;-72
2023/10/06 00:37:24;;;;;;;13.55;6.93;;;15.20;99.90;;;;;;5042787;28;20025;-71
2023/10/06 00:39:54;;;;;;;10.13;5.63;;;15.10;99.90;;;;;;5040644;28;20021;-71
2023/10/06 00:42:21;;;;;;;12.48;5.88;;;15.10;99.90;;;;;;5041918;28;20080;-72
2023/10/06 00:44:47;;;;;;;15.60;6.30;;;15.10;99.90;;;;;;5042154;28;20466;-71
2023/10/06 00:47:13;;;;;;;12.43;7.07;;;15.00;99.90;;;;;;5021890;28;20025;-72
2023/10/06 00:49:43;;;;;;;15.20;5.65;;;15.00;99.90;;;;;;5043290;28;20013;-72
2023/10/06 00:52:12;;;;;;;14.38;6.75;;;15.00;99.90;;;;;;5042884;28;20025;-71
2023/10/06 00:54:43;;;;;;;13.18;6.95;;;15.00;99.90;;;;;;5042007;28;20017;-72
2023/10/06 00:57:11;;;;;;;12.48;6.30;;;15.00;99.90;;;;;;5038313;28;20021;-71
2023/10/06 00:59:37;;;;;;;16.35;7.43;;;14.90;99.90;;;;;;5034494;28;20030;-71
2023/10/06 01:02:08;;;;;;;16.25;6.03;;;14.90;99.90;;;;;;5042205;28;20029;-74
2023/10/06 01:04:38;;;;;;;14.32;5.68;;;14.90;99.90;;;;;;5039085;28;20809;-75
2023/10/06 01:07:05;;;;;;;14.73;6.72;;;14.90;99.90;;;;;;5039524;28;20102;-74
2023/10/06 01:09:30;;;;;;;14.43;6.32;;;14.90;99.90;;;;;;5041252;28;20025;-73
2023/10/06 01:11:57;;;;;;;16.35;6.40;;;14.90;99.90;;;;;;5038757;28;20025;-73
2023/10/06 01:14:27;;;;;;;12.25;5.95;;;14.90;99.90;;;;;;5024468;28;20013;-72
2023/10/06 01:17:04;;;;;;;11.38;5.50;;;14.90;99.90;;;;;;5022705;28;20103;-72
2023/10/06 01:19:33;;;;;;;8.57;5.07;;;14.80;99.90;;;;;;5025615;28;20438;-73
2023/10/06 01:22:20;;;;;;;11.60;5.90;;;14.90;99.90;;;;;;5041209;28;20398;-73
2023/10/06 01:24:45;;;;;;;10.95;5.95;;;14.80;99.90;;;;;;5039771;28;20042;-72
2023/10/06 01:27:11;;;;;;;11.75;6.82;;;14.80;99.90;;;;;;5040891;28;20048;-73
2023/10/06 01:29:38;;;;;;;14.23;6.20;;;14.80;99.90;;;;;;5039769;28;20033;-72
2023/10/06 01:32:08;;;;;;;12.52;5.95;;;14.70;99.90;;;;;;5037412;28;20028;-73
2023/10/06 01:34:38;;;;;;;15.88;6.50;;;14.80;99.90;;;;;;5038447;28;20012;-74
2023/10/06 01:37:11;;;;;;;19.30;6.90;;;14.70;99.90;;;;;;5041419;28;20028;-73
2023/10/06 01:39:37;;;;;;;11.32;5.85;;;14.70;99.90;;;;;;5021425;28;20386;-73
2023/10/06 01:42:07;;;;;;;12.68;6.60;;;14.70;99.90;;;;;;5037923;28;20100;-72
2023/10/06 01:44:36;;;;;;;12.15;6.28;;;14.70;99.90;;;;;;5039203;28;20047;-73
2023/10/06 01:47:04;;;;;;;12.63;5.80;;;14.70;99.90;;;;;;5039910;28;20036;-73
2023/10/06 01:49:31;;;;;;;12.13;5.90;;;14.60;99.90;;;;;;5043580;28;20140;-73
2023/10/06 01:51:57;;;;;;;13.60;6.80;;;14.70;99.90;;;;;;5041396;28;20052;-73
2023/10/06 01:54:27;;;;;;;17.88;7.07;;;14.70;99.90;;;;;;5038268;28;20106;-73
2023/10/06 01:56:54;;;;;;;17.27;6.97;;;14.70;99.90;;;;;;5041200;28;20060;-72
2023/10/06 01:59:20;;;;;;;10.57;5.80;;;14.70;99.90;;;;;;5035075;28;20156;-74
2023/10/06 02:01:47;;;;;;;16.23;6.85;;;14.60;99.90;;;;;;5044463;28;20052;-72
2023/10/06 02:04:19;;;;;;;12.00;6.50;;;14.60;99.90;;;;;;5041997;28;20025;-74
2023/10/06 02:06:45;;;;;;;14.70;5.80;;;14.50;99.90;;;;;;5040137;28;20063;-72
2023/10/06 02:09:20;;;;;;;9.75;5.78;;;14.60;99.90;;;;;;5038050;28;20627;-73
2023/10/06 02:11:49;;;;;;;12.88;5.88;;;14.50;99.90;;;;;;5036170;28;20029;-72
2023/10/06 02:14:17;;;;;;;13.68;6.05;;;14.60;99.90;;;;;;5041462;28;20064;-73
2023/10/06 02:16:48;;;;;;;14.13;6.15;;;14.60;99.90;;;;;;5041660;28;20022;-72
2023/10/06 02:19:17;;;;;;;11.23;5.88;;;14.50;99.90;;;;;;5037962;28;20028;-73
2023/10/06 02:21:49;;;;;;;12.57;6.65;;;14.60;99.90;;;;;;5037025;28;20048;-72
2023/10/06 02:24:18;;;;;;;11.50;6.05;;;14.60;99.90;;;;;;5042217;28;20055;-72
2023/10/06 02:26:57;;;;;;;20.83;5.88;;;14.60;99.90;;;;;;5037256;28;20045;-72
2023/10/06 02:29:23;;;;;;;12.52;5.75;;;14.50;99.90;;;;;;5038648;28;20026;-72
2023/10/06 02:32:00;;;;;;;13.45;6.20;;;14.50;99.90;;;;;;5033012;28;20048;-72
2023/10/06 02:34:29;;;;;;;15.27;6.43;;;14.50;99.90;;;;;;5022457;28;20025;-72
2023/10/06 02:37:00;;;;;;;10.05;5.93;;;14.50;99.90;;;;;;5039068;28;20482;-72
2023/10/06 02:39:33;;;;;;;13.80;6.20;;;14.50;99.90;;;;;;5039723;28;20024;-72
2023/10/06 02:42:02;;;;;;;10.68;6.10;;;14.40;99.90;;;;;;5019470;28;20482;-72
2023/10/06 02:44:29;;;;;;;11.63;5.47;;;14.50;99.90;;;;;;5039369;28;20037;-73
2023/10/06 02:46:55;;;;;;;13.23;5.82;;;14.50;99.90;;;;;;5036419;28;20108;-72
2023/10/06 02:49:31;;;;;;;15.30;5.72;;;14.40;99.90;;;;;;5040638;28;20025;-72
2023/10/06 02:52:13;;;;;;;14.57;5.57;;;14.40;99.90;;;;;;5037182;28;20059;-72
2023/10/06 02:54:45;;;;;;;14.80;6.15;;;14.50;99.90;;;;;;5037579;28;20035;-72
2023/10/06 02:57:11;;;;;;;10.85;5.78;;;14.40;99.90;;;;;;5023694;28;20087;-73
2023/10/06 02:59:36;;;;;;;13.32;6.47;;;14.40;99.90;;;;;;5036819;28;20502;-72
2023/10/06 03:02:15;;;;;;;9.30;5.57;;;14.40;99.90;;;;;;5036844;28;20040;-71
2023/10/06 03:04:44;;;;;;;13.70;6.60;;;14.40;99.90;;;;;;5041387;28;20025;-72
2023/10/06 03:07:15;;;;;;;10.93;5.97;;;14.40;99.90;;;;;;5039859;28;20108;-72
2023/10/06 03:09:46;;;;;;;11.55;5.95;;;14.30;99.90;;;;;;5034858;28;20097;-71
2023/10/06 03:12:15;;;;;;;7.68;6.03;;;14.40;99.90;;;;;;5042767;28;20025;-71
2023/10/06 03:14:46;;;;;;;11.90;6.55;;;14.30;99.90;;;;;;5039868;28;20025;-71
2023/10/06 03:17:13;;;;;;;12.38;6.15;;;14.30;99.90;;;;;;5039869;28;20044;-73
2023/10/06 03:19:44;;;;;;;12.75;5.38;;;14.30;99.90;;;;;;5022357;28;20026;-71
2023/10/06 03:22:12;;;;;;;13.00;6.05;;;14.30;99.90;;;;;;5039834;28;20116;-70
2023/10/06 03:24:53;;;;;;;11.82;5.95;;;14.30;99.90;;;;;;5041496;28;20029;-70
2023/10/06 03:27:22;;;;;;;14.60;6.90;;;14.30;99.90;;;;;;5040690;28;20033;-71
2023/10/06 03:32:19;;;;;;;16.08;6.32;;;14.20;99.90;;;;;;5040370;28;20158;-70
2023/10/06 03:34:47;;;;;;;12.80;6.33;;;14.10;99.90;;;;;;5036888;28;20029;-73
2023/10/06 03:37:16;;;;;;;11.13;6.25;;;14.10;99.90;;;;;;5023767;28;20044;-71
2023/10/06 03:39:50;;;;;;;19.25;7.30;;;14.20;99.90;;;;;;5037119;28;20036;-69
2023/10/06 03:42:20;;;;;;;18.40;6.63;;;14.20;99.90;;;;;;5040295;28;20040;-70
2023/10/06 03:45:05;;;;;;;12.82;6.57;;;14.10;99.90;;;;;;5040208;28;20064;-70
2023/10/06 03:47:30;;;;;;;12.30;6.30;;;14.10;99.90;;;;;;5034001;28;20029;-70
2023/10/06 03:49:56;;;;;;;15.45;6.85;;;14.10;99.90;;;;;;5020439;28;20355;-69
2023/10/06 03:52:22;;;;;;;12.60;6.18;;;14.10;99.90;;;;;;5036055;28;20520;-69
2023/10/06 03:54:48;;;;;;;11.35;6.20;;;14.00;99.90;;;;;;5042344;28;20148;-70
2023/10/06 03:57:15;;;;;;;10.65;5.53;;;13.90;99.90;;;;;;5042205;28;20033;-69
2023/10/06 03:59:44;;;;;;;9.20;5.88;;;13.80;99.90;;;;;;5041444;28;20024;-70
2023/10/06 04:02:11;;;;;;;12.38;6.70;;;13.80;99.90;;;;;;5039892;28;20033;-69
2023/10/06 04:04:39;;;;;;;10.90;6.63;;;13.80;99.90;;;;;;5037441;28;20514;-71
2023/10/06 04:07:06;;;;;;;9.93;5.95;;;13.80;99.90;;;;;;5042721;28;20444;-70
2023/10/06 04:09:33;;;;;;;13.25;5.53;;;13.80;99.90;;;;;;5038736;28;20021;-70
2023/10/06 04:12:01;;;;;;;16.42;6.25;;;13.80;99.90;;;;;;5043784;28;20032;-72
2023/10/06 04:14:32;;;;;;;14.05;6.43;;;13.80;99.90;;;;;;5043300;28;20059;-71
2023/10/06 04:17:01;;;;;;;9.38;5.70;;;13.90;99.90;;;;;;5041009;28;20021;-71
2023/10/06 04:19:26;;;;;;;14.15;6.20;;;13.80;99.90;;;;;;5021012;28;20441;-71
2023/10/06 04:21:52;;;;;;;11.80;5.88;;;13.80;99.90;;;;;;5040087;28;20060;-71
2023/10/06 04:24:18;;;;;;;13.02;6.25;;;13.90;99.90;;;;;;5041784;28;20056;-70
2023/10/06 04:26:45;;;;;;;11.73;5.57;;;13.90;99.90;;;;;;5038194;28;20046;-70
2023/10/06 04:29:13;;;;;;;9.32;5.90;;;13.80;99.90;;;;;;5040424;28;20509;-69
2023/10/06 04:31:38;;;;;;;17.92;6.35;;;13.80;99.90;;;;;;5037405;28;20060;-70
2023/10/06 04:34:04;;;;;;;13.52;5.97;;;13.80;99.90;;;;;;5040725;28;20064;-71
2023/10/06 04:36:31;;;;;;;14.73;6.55;;;13.80;99.90;;;;;;5039670;28;20109;-71
2023/10/06 04:38:57;;;;;;;13.50;6.07;;;13.80;99.90;;;;;;5023752;28;20079;-70
2023/10/06 04:41:23;;;;;;;14.50;5.90;;;13.80;99.90;;;;;;5039272;28;20025;-71
2023/10/06 04:43:51;;;;;;;8.68;5.82;;;13.80;99.90;;;;;;5041880;28;20074;-71
2023/10/06 04:46:16;;;;;;;13.25;6.38;;;13.80;99.90;;;;;;5037373;28;20382;-71
2023/10/06 04:48:42;;;;;;;12.57;6.03;;;13.90;99.90;;;;;;5039847;28;20017;-70
2023/10/06 04:51:12;;;;;;;14.43;4.97;;;13.90;99.90;;;;;;5039828;28;20070;-70
2023/10/06 04:53:38;;;;;;;13.02;5.93;;;13.90;99.90;;;;;;5037308;28;20466;-69
2023/10/06 04:56:07;;;;;;;11.07;5.20;;;13.80;99.90;;;;;;5038207;28;20028;-71
2023/10/06 04:58:36;;;;;;;13.93;6.13;;;13.80;99.90;;;;;;5038920;28;20382;-72
2023/10/06 05:01:02;;;;;;;13.02;5.90;;;13.80;99.90;;;;;;5040943;28;20028;-72
2023/10/06 05:03:40;;;;;;;13.55;5.70;;;13.80;99.90;;;;;;5041206;28;20018;-70
2023/10/06 05:06:13;;;;;;;14.00;5.63;;;13.80;99.90;;;;;;5039703;28;20040;-70
2023/10/06 05:08:39;;;;;;;12.93;5.75;;;13.70;99.90;;;;;;5039995;28;20108;-71
2023/10/06 05:11:06;;;;;;;12.30;5.88;;;13.70;99.90;;;;;;5041537;28;20017;-69
2023/10/06 05:13:34;;;;;;;11.18;5.50;;;13.70;99.90;;;;;;5037776;28;20028;-70
2023/10/06 05:16:04;;;;;;;14.30;5.82;;;13.60;99.90;;;;;;5040098;28;20028;-70
2023/10/06 05:18:32;;;;;;;11.68;5.28;;;13.70;99.90;;;;;;5035986;28;20026;-70
2023/10/06 05:20:58;;;;;;;10.95;5.20;;;13.70;99.90;;;;;;5041004;28;20024;-69
2023/10/06 05:23:26;;;;;;;16.17;6.10;;;13.70;99.90;;;;;;5040883;28;20373;-72
2023/10/06 05:25:54;;;;;;;16.00;5.93;;;13.70;99.90;;;;;;4996731;28;1140390;-70
2023/10/06 05:28:20;;;;;;;9.48;5.05;;;13.60;99.90;;;;;;5042995;28;20029;-69
2023/10/06 05:30:46;;;;;;;14.63;5.95;;;13.70;99.90;;;;;;5037368;28;20063;-69
2023/10/06 05:33:14;;;;;;;12.73;5.95;;;13.70;99.90;;;;;;5033956;28;20107;-72
2023/10/06 05:35:39;;;;;;;10.27;5.38;;;13.70;99.90;;;;;;5037243;28;20087;-69
2023/10/06 05:38:15;;;;;;;14.88;5.43;;;13.70;99.90;;;;;;5034741;28;20486;-72
2023/10/06 05:40:46;;;;;;;10.25;5.38;;;13.70;99.90;;;;;;5034816;28;20032;-70
2023/10/06 05:43:12;;;;;;;10.95;5.13;;;13.70;99.90;;;;;;5036047;28;20021;-74
2023/10/06 05:45:39;;;;;;;8.07;4.95;;;13.60;99.90;;;;;;5036784;28;20505;-71
2023/10/06 05:48:10;;;;;;;11.32;5.80;;;13.70;99.90;;;;;;5038345;28;20498;-70
2023/10/06 05:50:36;;;;;;;12.00;5.40;;;13.60;99.90;;;;;;5036701;28;20120;-71
2023/10/06 05:53:17;;;;;;;11.40;5.47;;;13.70;99.90;;;;;;5035973;28;20036;-71
2023/10/06 05:55:42;;;;;;;14.88;5.70;;;13.70;99.90;;;;;;5033966;28;20448;-69
2023/10/06 05:58:09;;;;;;;9.00;4.82;;;13.70;99.90;;;;;;5037366;28;20054;-70
2023/10/06 06:00:43;;;;;;;13.30;5.30;;;13.60;99.90;;;;;;5040898;28;20497;-73
2023/10/06 06:03:10;;;;;;;8.93;5.13;;;13.60;99.90;;;;;;5040921;28;20032;-68
2023/10/06 06:05:40;;;;;;;13.85;5.00;;;13.60;99.90;;;;;;5040313;28;21158;-68
2023/10/06 06:08:09;;;;;;;16.02;5.75;;;13.60;99.90;;;;;;5041806;28;20009;-70
2023/10/06 06:10:41;;;;;;;10.55;5.32;;;13.60;99.90;;;;;;5043359;28;20025;-75
2023/10/06 06:13:07;;;;;;;13.73;5.43;;;13.70;99.90;;;;;;5022240;28;20021;-69
2023/10/06 06:15:35;;;;;;;11.35;5.05;;;13.70;99.90;;;;;;5020172;28;20025;-69
2023/10/06 06:18:01;;;;;;;17.80;6.03;;;13.70;99.90;;;;;;5042020;28;20099;-72
2023/10/06 06:20:28;;;;;;;15.75;4.82;;;13.70;99.90;;;;;;5040769;28;20109;-71
2023/10/06 06:23:02;;;;;;;15.35;6.10;;;13.70;99.90;;;;;;5038905;28;20040;-70
2023/10/06 06:25:29;;;;;;;15.38;5.70;;;13.60;99.90;;;;;;5039731;28;20029;-72
2023/10/06 06:27:59;;;;;;;9.57;5.55;;;13.60;99.90;;;;;;5041677;28;20035;-71
2023/10/06 06:30:25;;;;;;;14.27;5.53;;;13.60;99.90;;;;;;5040281;28;20035;-73
2023/10/06 06:32:52;;;;;;;11.60;5.53;;;13.60;99.90;;;;;;5040085;28;20025;-72
2023/10/06 06:35:22;;;;;;;13.00;5.60;;;13.60;99.90;;;;;;5042645;28;20373;-70
2023/10/06 06:37:59;;;;;;;14.05;5.55;;;13.60;99.90;;;;;;5041025;28;20382;-68
2023/10/06 06:40:26;;;;;;;20.15;6.25;;;13.60;99.90;;;;;;5040308;28;20029;-75
2023/10/06 06:42:52;;;;;;;13.40;5.40;;;13.60;99.90;;;;;;5020581;28;20021;-70
2023/10/06 06:45:19;;;;;;;15.30;6.10;;;13.70;99.90;;;;;;5038307;28;20087;-71
2023/10/06 06:47:46;;;;;;;11.35;5.63;;;13.60;99.90;;;;;;5040273;28;20031;-70
2023/10/06 06:50:13;;;;;;;15.48;5.85;;;13.70;99.90;;;;;;5036397;28;20088;-70
2023/10/06 06:52:42;;;;;;;10.73;4.78;;;13.70;99.90;;;;;;5036500;28;20028;-71
2023/10/06 06:55:15;;;;;;;14.95;6.03;;;13.60;99.90;;;;;;5036290;28;20041;-70
2023/10/06 06:57:49;;;;;;;12.07;5.78;;;13.70;99.90;;;;;;5040096;28;20112;-69
2023/10/06 07:00:21;;;;;;;12.48;5.70;;;13.70;99.90;;;;;;5038472;28;20017;-71
2023/10/06 07:02:50;;;;;;;14.13;5.93;;;13.70;99.90;;;;;;5039517;28;20025;-71
2023/10/06 07:05:18;;;;;;;11.23;5.65;;;13.80;99.90;;;;;;5037860;28;20032;-71
2023/10/06 07:07:45;;;;;;;9.90;5.35;;;13.80;99.90;;;;;;5038222;28;20060;-73
2023/10/06 07:10:15;;;;;;;10.80;5.40;;;13.90;99.90;;;;;;5023840;28;20120;-74
2023/10/06 07:12:50;;;;;;;15.15;5.93;;;13.90;99.90;;;;;;5038550;28;20052;-74
2023/10/06 07:15:18;;;;;;;12.48;6.40;;;13.90;99.90;;;;;;5036785;28;20032;-72
2023/10/06 07:17:53;;;;;;;15.35;6.05;;;13.90;99.90;;;;;;5037762;28;20018;-70
2023/10/06 07:20:28;;;;;;;16.15;6.57;;;13.90;99.90;;;;;;5036644;28;20123;-70
2023/10/06 07:23:00;;;;;;;13.25;5.57;;;13.90;99.90;;;;;;5036013;28;20013;-76
2023/10/06 07:25:27;;;;;;;14.73;5.75;;;14.00;99.90;;;;;;5039452;28;20040;-73
2023/10/06 07:27:57;;;;;;;14.52;6.15;;;14.00;99.90;;;;;;5040849;28;20025;-75
2023/10/06 07:30:25;;;;;;;16.30;6.15;;;14.00;99.90;;;;;;5035006;28;20099;-73
2023/10/06 07:32:54;;;;;;;11.63;6.25;;;14.00;99.90;;;;;;5039789;28;20021;-75
2023/10/06 07:35:25;;;;;;;13.02;6.03;;;14.00;99.90;;;;;;5041721;28;20052;-71
2023/10/06 07:37:52;;;;;;;9.70;5.45;;;14.10;99.90;;;;;;5036737;28;20436;-71
2023/10/06 07:40:21;;;;;;;15.68;5.93;;;14.10;99.90;;;;;;5039137;28;20098;-71
2023/10/06 07:42:49;;;;;;;16.73;5.93;;;14.20;99.90;;;;;;5038423;28;20044;-74
2023/10/06 07:45:16;;;;;;;17.23;5.57;;;14.20;99.90;;;;;;5039234;28;20045;-76
2023/10/06 07:47:42;;;;;;;16.23;5.80;;;14.30;99.90;;;;;;5042420;28;20492;-75
2023/10/06 07:50:09;;;;;;;14.02;6.18;;;14.30;99.90;;;;;;5021818;28;20466;-74
2023/10/06 07:52:36;;;;;;;19.77;5.30;;;14.40;99.90;;;;;;5037556;28;20025;-70
2023/10/06 07:55:06;;;;;;;9.65;6.15;;;14.40;99.90;;;;;;5036836;28;20084;-73
2023/10/06 07:57:33;;;;;;;14.35;5.93;;;14.50;99.90;;;;;;5022821;28;20633;-75
2023/10/06 08:00:06;;;;;;;16.20;6.00;;;14.50;99.90;;;;;;5038090;28;20025;-76
2023/10/06 08:02:33;;;;;;;17.23;5.97;;;14.50;99.90;;;;;;5019971;28;20040;-75
2023/10/06 08:04:59;;;;;;;16.77;6.10;;;14.70;99.90;;;;;;5039978;28;20111;-73
2023/10/06 08:07:28;;;;;;;16.83;5.78;;;14.70;99.90;;;;;;5037840;28;20045;-77
2023/10/06 08:10:05;;;;;;;19.92;5.82;;;14.80;99.90;;;;;;5037408;28;20116;-74
2023/10/06 08:12:33;;;;;;;15.13;6.03;;;14.90;99.90;;;;;;5038329;28;20038;-74
2023/10/06 08:15:09;;;;;;;14.50;6.05;;;14.90;99.90;;;;;;5021531;28;20044;-74
2023/10/06 08:17:35;;;;;;;11.98;4.97;;;15.00;99.90;;;;;;5039333;28;20117;-74
2023/10/06 08:20:01;;;;;;;12.75;5.93;;;15.10;99.90;;;;;;5019914;28;20021;-74
2023/10/06 08:22:29;;;;;;;8.38;4.63;;;15.10;99.90;;;;;;5021431;28;20036;-74
2023/10/06 08:24:55;;;;;;;10.75;6.00;;;15.30;99.90;;;;;;5040880;28;20030;-74
2023/10/06 08:27:23;;;;;;;13.35;5.25;;;15.40;99.90;;;;;;5020061;28;20031;-74
2023/10/06 08:29:54;;;;;;;13.95;5.20;;;15.40;99.90;;;;;;5039524;28;20025;-74
2023/10/06 08:32:21;;;;;;;15.85;5.45;;;15.50;99.90;;;;;;5022456;28;20489;-76
2023/10/06 08:34:47;;;;;;;12.90;5.18;;;15.50;99.90;;;;;;5037756;28;20036;-75
2023/10/06 08:37:14;;;;;;;11.43;5.55;;;15.70;99.90;;;;;;5037460;28;20021;-75
2023/10/06 08:39:40;;;;;;;11.65;5.55;;;15.60;99.90;;;;;;5040891;28;20057;-80
2023/10/06 08:42:14;;;;;;;13.52;5.55;;;15.70;99.90;;;;;;5040476;28;20506;-74
2023/10/06 08:44:41;;;;;;;18.20;6.32;;;15.80;99.90;;;;;;5044867;28;20512;-74
2023/10/06 08:47:12;;;;;;;13.43;5.38;;;15.90;99.90;;;;;;5044720;28;20128;-74
2023/10/06 08:49:43;;;;;;;13.85;5.68;;;16.00;99.90;;;;;;5042624;28;20018;-74
2023/10/06 08:52:12;;;;;;;14.40;6.43;;;16.10;99.90;;;;;;5017237;28;20021;-75
2023/10/06 08:54:43;;;;;;;14.02;5.82;;;16.20;99.90;;;;;;5041999;28;20144;-75
2023/10/06 08:57:12;;;;;;;11.65;6.53;;;16.20;99.90;;;;;;5041631;28;20040;-75
2023/10/06 08:59:41;;;;;;;14.07;5.38;;;16.30;99.90;;;;;;5041075;28;20505;-74
2023/10/06 09:02:09;;;;;;;11.30;5.25;;;16.40;99.90;;;;;;5041617;28;20025;-75
2023/10/06 09:04:37;;;;;;;12.55;5.38;;;16.50;99.90;;;;;;5042630;28;20474;-75
2023/10/06 09:07:08;;;;;;;15.45;5.25;;;16.50;99.90;;;;;;5041373;28;20021;-76
2023/10/06 09:09:33;;;;;;;13.23;5.15;;;16.70;99.90;;;;;;5043155;28;20033;-75
2023/10/06 09:11:59;;;;;;;14.15;5.63;;;16.70;99.90;;;;;;5037825;28;20025;-76
2023/10/06 09:14:25;;;;;;;10.43;5.07;;;16.80;99.90;;;;;;5021963;28;20469;-75
2023/10/06 09:16:51;;;;;;;10.77;5.45;;;16.90;99.90;;;;;;5026523;28;20149;-74
2023/10/06 09:19:18;;;;;;;14.55;5.25;;;17.00;99.90;;;;;;5039911;28;20033;-75
2023/10/06 09:22:04;;;;;;;11.77;5.07;;;17.10;99.90;;;;;;5038520;28;20024;-75
2023/10/06 09:24:30;;;;;;;10.90;5.28;;;17.20;99.90;;;;;;5039693;28;20025;-75
2023/10/06 09:26:58;;;;;;;16.15;5.45;;;17.30;99.90;;;;;;5043400;28;20033;-76
2023/10/06 09:29:33;;;;;;;12.15;5.03;;;17.30;99.90;;;;;;5024302;28;20025;-76
2023/10/06 09:32:01;;;;;;;10.75;5.25;;;17.40;99.90;;;;;;5039434;28;20033;-77
2023/10/06 09:34:27;;;;;;;12.32;5.40;;;17.40;99.90;;;;;;5041382;28;20018;-76
2023/10/06 09:36:53;;;;;;;14.68;5.20;;;17.40;99.90;;;;;;5041288;28;20033;-76
2023/10/06 09:39:32;;;;;;;14.52;5.72;;;17.50;99.90;;;;;;5039765;28;20078;-76
2023/10/06 09:42:00;;;;;;;13.77;5.43;;;17.70;99.90;;;;;;5036870;28;20489;-76
2023/10/06 09:44:27;;;;;;;10.63;4.53;;;17.80;99.90;;;;;;5041341;28;20100;-75
2023/10/06 09:46:53;;;;;;;17.48;6.28;;;17.90;99.90;;;;;;5042076;28;20071;-75
2023/10/06 09:49:20;;;;;;;13.50;5.30;;;18.10;99.90;;;;;;5037742;28;20033;-74
2023/10/06 09:51:46;;;;;;;16.90;4.68;;;18.10;99.90;;;;;;5040792;28;20041;-74
2023/10/06 09:54:14;;;;;;;16.33;5.55;;;18.20;99.90;;;;;;5040971;28;20017;-74
2023/10/06 09:56:41;;;;;;;14.18;6.00;;;18.30;99.90;;;;;;5042021;28;20224;-73
2023/10/06 09:59:12;;;;;;;14.35;4.82;;;18.30;99.90;;;;;;5036290;28;20556;-75
2023/10/06 10:01:45;;;;;;;12.48;4.82;;;18.40;99.90;;;;;;5037097;28;20024;-75
2023/10/06 10:04:11;;;;;;;12.32;4.82;;;18.50;99.90;;;;;;5016117;28;20029;-74
2023/10/06 10:06:48;;;;;;;9.15;4.60;;;18.40;99.90;;;;;;5036659;28;20039;-75
2023/10/06 10:09:17;;;;;;;16.88;5.00;;;18.50;99.90;;;;;;5019339;28;20055;-75
2023/10/06 10:12:00;;;;;;;14.05;5.25;;;18.40;99.90;;;;;;5038489;28;20029;-74
2023/10/06 10:14:39;;;;;;;17.33;4.75;;;18.40;99.90;;;;;;5034320;28;20022;-76
2023/10/06 10:17:37;;;;;;;17.05;4.82;;;18.40;99.90;;;;;;5030234;28;20104;-75
2023/10/06 10:20:09;;;;;;;10.15;4.40;;;18.50;99.90;;;;;;5021399;28;20028;-74
2023/10/06 10:22:34;;;;;;;14.95;5.00;;;18.60;99.90;;;;;;5037757;28;20030;-76
2023/10/06 10:25:05;;;;;;;11.45;4.32;;;18.60;99.90;;;;;;5034819;28;20037;-76
2023/10/06 10:27:33;;;;;;;13.70;4.40;;;18.60;99.90;;;;;;5038764;28;20037;-79
2023/10/06 10:30:07;;;;;;;12.88;4.63;;;18.70;99.90;;;;;;5019134;28;20106;-76
2023/10/06 10:32:33;;;;;;;15.77;5.13;;;18.60;99.90;;;;;;5033772;28;20028;-75
2023/10/06 10:35:18;;;;;;;10.02;4.45;;;18.60;99.90;;;;;;5040748;28;20033;-76
2023/10/06 10:38:02;;;;;;;13.40;4.63;;;18.60;99.90;;;;;;5036244;28;20024;-74
2023/10/06 10:40:46;;;;;;;13.10;4.57;;;18.60;99.90;;;;;;5032191;28;20472;-72
2023/10/06 10:43:14;;;;;;;9.30;4.75;;;18.70;99.90;;;;;;5043427;28;20474;-75
2023/10/06 10:45:44;;;;;;;12.55;4.80;;;18.60;99.90;;;;;;5035088;28;20045;-75
2023/10/06 10:48:13;;;;;;;13.55;4.60;;;18.70;99.90;;;;;;5034827;28;20021;-75
2023/10/06 10:51:01;;;;;;;9.98;4.57;;;18.80;99.90;;;;;;5030808;28;20036;-74
2023/10/06 10:53:56;;;;;;;10.93;4.63;;;18.90;99.90;;;;;;5032124;28;20025;-75
2023/10/06 10:56:34;;;;;;;12.48;4.13;;;18.90;99.90;;;;;;5014738;28;20040;-74
2023/10/06 10:59:00;;;;;;;11.63;4.03;;;19.10;99.90;;;;;;5030611;28;20033;-75
2023/10/06 11:01:29;;;;;;;11.05;4.28;;;19.10;99.90;;;;;;5017486;28;21354;-75
2023/10/06 11:04:14;;;;;;;12.10;4.72;;;19.10;99.90;;;;;;5033032;28;20070;-75
2023/10/06 11:06:42;;;;;;;14.68;4.93;;;19.10;99.90;;;;;;5033531;28;20029;-76
2023/10/06 11:09:26;;;;;;;12.15;4.63;;;19.20;99.90;;;;;;5030852;28;20049;-75
2023/10/06 11:12:00;;;;;;;9.43;4.30;;;19.40;99.90;;;;;;5021058;28;20516;-75
2023/10/06 11:14:27;;;;;;;14.52;4.50;;;19.60;99.90;;;;;;5030655;28;20478;-76
2023/10/06 11:17:02;;;;;;;8.05;3.47;;;19.60;99.90;;;;;;5032873;28;20523;-75
2023/10/06 11:19:30;;;;;;;8.75;4.38;;;19.70;99.90;;;;;;5033036;28;20033;-75
2023/10/06 11:22:07;;;;;;;11.57;4.35;;;19.90;99.90;;;;;;5034479;28;20021;-75
2023/10/06 11:24:34;;;;;;;14.32;3.70;;;20.00;99.90;;;;;;5033019;28;20030;-75
2023/10/06 11:27:14;;;;;;;11.18;3.58;;;20.00;99.90;;;;;;5032141;28;20124;-75
2023/10/06 11:29:40;;;;;;;10.60;3.72;;;20.10;99.90;;;;;;5034263;28;20044;-75
2023/10/06 11:32:07;;;;;;;11.27;3.67;;;20.20;99.90;;;;;;5030211;28;20471;-75
2023/10/06 11:34:34;;;;;;;10.88;4.28;;;20.20;99.90;;;;;;5034667;28;20482;-75
2023/10/06 11:37:02;;;;;;;5.40;3.10;;;20.20;99.90;;;;;;5035860;28;20025;-75
2023/10/06 11:39:31;;;;;;;13.68;3.17;;;20.10;99.90;;;;;;5034657;28;20521;-76
2023/10/06 11:42:24;;;;;;;9.07;3.72;;;20.00;99.90;;;;;;5028350;28;20029;-75
2023/10/06 11:44:55;;;;;;;7.60;3.25;;;20.00;99.90;;;;;;5018588;28;20474;-75
2023/10/06 11:47:27;;;;;;;12.85;4.30;;;19.90;99.90;;;;;;5032749;28;20041;-76
2023/10/06 11:49:57;;;;;;;10.23;3.90;;;20.00;99.90;;;;;;5033989;28;20017;-75
2023/10/06 11:52:24;;;;;;;10.55;4.00;;;20.00;99.90;;;;;;5031812;28;20033;-74
2023/10/06 11:54:53;;;;;;;10.10;3.83;;;20.10;99.90;;;;;;5017589;28;20398;-76
2023/10/06 11:57:39;;;;;;;12.60;3.97;;;20.10;99.90;;;;;;5018000;28;20061;-76
2023/10/06 12:00:10;;;;;;;10.13;3.17;;;20.30;99.90;;;;;;5033097;28;20032;-76
2023/10/06 12:02:56;;;;;;;9.48;4.00;;;20.30;99.90;;;;;;5035111;28;20336;-76
2023/10/06 12:05:22;;;;;;;13.95;3.75;;;20.50;99.90;;;;;;5037038;28;20068;-75
2023/10/06 12:07:51;;;;;;;11.00;4.10;;;20.40;99.90;;;;;;5035297;28;20045;-76
2023/10/06 12:10:19;;;;;;;10.93;3.80;;;20.50;99.90;;;;;;5033779;28;20044;-76
2023/10/06 12:12:46;;;;;;;9.15;3.88;;;20.50;99.90;;;;;;5030411;28;20033;-76
2023/10/06 12:15:15;;;;;;;5.47;3.38;;;20.60;99.90;;;;;;5038078;28;20021;-77
2023/10/06 12:17:41;;;;;;;9.55;3.60;;;20.70;99.90;;;;;;5039303;28;20039;-76
2023/10/06 12:20:13;;;;;;;10.82;4.45;;;20.80;99.90;;;;;;5034624;28;20025;-76
2023/10/06 12:22:45;;;;;;;11.60;4.03;;;20.70;99.90;;;;;;5036671;28;20029;-77
2023/10/06 12:25:12;;;;;;;11.95;3.65;;;20.70;99.90;;;;;;5039623;28;20482;-76
2023/10/06 12:27:43;;;;;;;11.43;3.35;;;20.70;99.90;;;;;;5033957;28;20041;-77
2023/10/06 12:30:13;;;;;;;9.63;3.72;;;20.80;99.90;;;;;;5034590;28;20039;-77
2023/10/06 12:32:41;;;;;;;9.93;3.88;;;20.80;99.90;;;;;;5035928;28;20036;-76
2023/10/06 12:35:08;;;;;;;8.73;3.25;;;20.70;99.90;;;;;;5034322;28;20013;-75
2023/10/06 12:37:40;;;;;;;7.50;3.65;;;20.70;99.90;;;;;;5034492;28;20029;-75
2023/10/06 12:40:09;;;;;;;13.10;3.80;;;20.70;99.90;;;;;;5039068;28;20385;-76
2023/10/06 12:42:36;;;;;;;14.23;4.18;;;20.80;99.90;;;;;;5034391;28;20103;-74
2023/10/06 12:45:02;;;;;;;10.43;3.88;;;20.90;99.90;;;;;;5034572;28;20044;-76
2023/10/06 12:47:28;;;;;;;9.05;3.60;;;20.90;99.90;;;;;;5037489;28;20025;-76
2023/10/06 12:49:58;;;;;;;8.85;3.35;;;20.80;99.90;;;;;;5031845;28;20017;-76
2023/10/06 12:52:24;;;;;;;8.02;4.03;;;20.70;99.90;;;;;;5036780;28;20029;-76
2023/10/06 12:54:50;;;;;;;12.88;3.97;;;20.80;99.90;;;;;;5039866;28;20037;-75
2023/10/06 12:57:15;;;;;;;6.60;3.47;;;20.80;99.90;;;;;;5040696;28;20017;-75
2023/10/06 12:59:41;;;;;;;12.65;4.90;;;20.70;99.90;;;;;;5040008;28;20036;-75